Time;durP1;ratioP1;P1;durP2;ratioP2;P2;SDS_P1;SDS_P2;PMS_P1;PMS_P2;Temp;Humidity;BMP_temperature;BMP_pressure;BME280_temperature;BME280_humidity;BME280_pressure;Samples;Min_cycle;Max_cycle;Signal;HPM_P1;HPM_P2
2021/07/08 00:00:00;;;;;;;4.93;2.47;;;15.00;99.90;;;;;;5047902;28;20057;-82
2021/07/08 00:02:26;;;;;;;5.30;2.47;;;14.90;99.90;;;;;;5028410;28;20035;-82
2021/07/08 00:04:52;;;;;;;4.13;3.08;;;15.00;99.90;;;;;;5048302;28;20093;-82
2021/07/08 00:07:17;;;;;;;4.18;2.60;;;15.20;99.90;;;;;;5048031;28;20068;-82
2021/07/08 00:09:43;;;;;;;5.57;2.72;;;15.10;99.90;;;;;;5047708;28;20048;-82
2021/07/08 00:12:09;;;;;;;3.17;2.50;;;15.00;99.90;;;;;;5048327;28;20033;-82
2021/07/08 00:14:35;;;;;;;4.57;2.75;;;14.90;99.90;;;;;;5065997;28;20488;-82
2021/07/08 00:17:02;;;;;;;3.80;2.67;;;14.90;99.90;;;;;;5031315;28;20060;-83
2021/07/08 00:19:28;;;;;;;3.65;2.42;;;14.80;99.90;;;;;;5031075;28;20068;-83
2021/07/08 00:21:54;;;;;;;4.63;3.22;;;14.70;99.90;;;;;;5031789;28;20029;-82
2021/07/08 00:24:19;;;;;;;3.22;2.60;;;14.70;99.90;;;;;;5047971;28;20038;-83
2021/07/08 00:26:47;;;;;;;4.65;2.30;;;14.90;99.90;;;;;;5047622;28;20072;-83
2021/07/08 00:29:13;;;;;;;2.85;1.85;;;14.80;99.90;;;;;;5047453;28;20033;-82
2021/07/08 00:31:38;;;;;;;3.63;2.58;;;14.70;99.90;;;;;;5047714;28;20037;-83
2021/07/08 00:34:04;;;;;;;3.85;2.10;;;14.70;99.90;;;;;;5065761;28;20089;-82
2021/07/08 00:36:30;;;;;;;3.60;2.08;;;14.60;99.90;;;;;;5065700;28;20029;-83
2021/07/08 00:38:56;;;;;;;3.45;2.25;;;14.70;99.90;;;;;;5047463;28;20136;-83
2021/07/08 00:41:23;;;;;;;2.90;2.22;;;14.70;99.90;;;;;;5065682;28;20025;-83
2021/07/08 00:43:51;;;;;;;3.65;2.22;;;14.70;99.90;;;;;;5047810;28;20033;-83
2021/07/08 00:46:50;;;;;;;3.70;2.40;;;14.60;99.90;;;;;;5047262;28;20029;-82
2021/07/08 00:49:16;;;;;;;3.28;2.08;;;14.60;99.90;;;;;;5060918;28;20055;-82
2021/07/08 00:51:42;;;;;;;3.85;2.03;;;14.40;99.90;;;;;;5047692;28;20033;-83
2021/07/08 00:54:10;;;;;;;3.78;2.20;;;14.40;99.90;;;;;;5030941;28;20039;-83
2021/07/08 00:56:38;;;;;;;4.28;2.20;;;14.40;99.90;;;;;;5065334;28;20039;-83
2021/07/08 00:59:06;;;;;;;4.05;1.77;;;14.40;99.90;;;;;;5064905;28;20568;-83
2021/07/08 01:01:32;;;;;;;3.67;2.08;;;14.40;99.90;;;;;;5065407;28;20112;-83
2021/07/08 01:03:59;;;;;;;4.07;2.42;;;14.40;99.90;;;;;;5027532;28;20025;-84
2021/07/08 01:06:29;;;;;;;2.92;1.77;;;14.30;99.90;;;;;;5027529;28;20072;-83
2021/07/08 01:08:55;;;;;;;4.20;1.88;;;14.30;99.90;;;;;;5046996;28;20052;-83
2021/07/08 01:11:22;;;;;;;3.67;2.10;;;14.20;99.90;;;;;;5031120;28;20052;-83
2021/07/08 01:13:48;;;;;;;3.20;1.92;;;14.30;99.90;;;;;;5050754;28;20025;-84
2021/07/08 01:16:14;;;;;;;2.72;1.77;;;14.30;99.90;;;;;;5051070;28;20039;-83
2021/07/08 01:18:41;;;;;;;3.60;2.08;;;14.30;99.90;;;;;;5051142;28;20096;-83
2021/07/08 01:21:22;;;;;;;3.08;1.70;;;14.20;99.90;;;;;;5051613;28;20032;-83
2021/07/08 01:23:48;;;;;;;2.83;1.98;;;14.20;99.90;;;;;;5051543;28;20025;-83
2021/07/08 01:26:14;;;;;;;2.72;1.83;;;14.20;99.90;;;;;;5068899;28;20039;-82
2021/07/08 01:28:40;;;;;;;5.32;1.90;;;14.20;99.90;;;;;;5050931;28;20068;-84
2021/07/08 01:31:07;;;;;;;2.47;1.92;;;14.20;99.90;;;;;;5034892;28;20033;-83
2021/07/08 01:33:34;;;;;;;3.53;1.38;;;14.20;99.90;;;;;;5051290;28;20033;-83
2021/07/08 01:36:00;;;;;;;3.95;1.90;;;14.20;99.90;;;;;;5034572;28;20051;-83
2021/07/08 01:38:26;;;;;;;3.38;1.60;;;14.20;99.90;;;;;;5030577;28;20033;-84
2021/07/08 01:40:52;;;;;;;2.92;1.65;;;14.30;99.90;;;;;;5031348;28;20033;-84
2021/07/08 01:43:18;;;;;;;4.22;1.70;;;14.20;99.90;;;;;;5047910;28;20029;-83
2021/07/08 01:45:44;;;;;;;2.72;1.52;;;14.20;99.90;;;;;;5048911;28;20026;-83
2021/07/08 01:48:10;;;;;;;3.08;2.10;;;14.20;99.90;;;;;;5049373;28;20057;-85
2021/07/08 01:50:35;;;;;;;3.60;1.73;;;14.20;99.90;;;;;;5034700;28;20040;-84
2021/07/08 01:53:09;;;;;;;2.70;1.80;;;14.20;99.90;;;;;;5069021;28;20041;-84
2021/07/08 01:55:34;;;;;;;2.45;1.38;;;14.20;99.90;;;;;;5031269;28;20440;-84
2021/07/08 01:58:01;;;;;;;3.47;1.58;;;14.20;99.90;;;;;;5048569;28;20029;-84
2021/07/08 02:00:27;;;;;;;2.47;1.42;;;14.30;99.90;;;;;;5051018;28;20112;-84
2021/07/08 02:02:55;;;;;;;2.05;1.27;;;14.40;99.90;;;;;;5050667;28;20029;-82
2021/07/08 02:05:21;;;;;;;2.92;1.95;;;14.50;99.90;;;;;;5051009;28;20108;-83
2021/07/08 02:07:47;;;;;;;3.55;1.45;;;14.50;99.90;;;;;;5068349;28;20029;-83
2021/07/08 02:10:15;;;;;;;4.30;1.00;;;14.50;99.90;;;;;;5033588;28;20485;-84
2021/07/08 02:12:41;;;;;;;4.60;1.25;;;14.60;99.90;;;;;;5068490;28;20503;-83
2021/07/08 02:15:09;;;;;;;1.90;1.17;;;14.60;99.90;;;;;;5050836;28;20032;-83
2021/07/08 02:17:35;;;;;;;4.93;1.55;;;14.50;99.90;;;;;;5033582;28;20067;-83
2021/07/08 02:20:01;;;;;;;2.55;1.52;;;14.60;99.90;;;;;;5050197;28;20096;-83
2021/07/08 02:22:26;;;;;;;2.92;1.55;;;14.60;99.90;;;;;;5030398;28;20036;-81
2021/07/08 02:24:52;;;;;;;2.45;1.63;;;14.60;99.90;;;;;;5046414;28;20029;-83
2021/07/08 02:27:18;;;;;;;2.13;1.67;;;14.50;99.90;;;;;;5030283;28;20045;-84
2021/07/08 02:29:43;;;;;;;5.05;1.92;;;14.50;99.90;;;;;;5063619;28;20025;-83
2021/07/08 02:32:10;;;;;;;3.30;2.15;;;14.50;99.90;;;;;;5033720;28;20029;-84
2021/07/08 02:34:38;;;;;;;3.35;1.67;;;14.50;99.90;;;;;;5049822;28;20025;-83
2021/07/08 02:37:06;;;;;;;3.47;2.17;;;14.50;99.90;;;;;;5068288;28;20076;-84
2021/07/08 02:39:32;;;;;;;3.63;2.05;;;14.60;99.90;;;;;;5067604;28;20025;-84
2021/07/08 02:41:58;;;;;;;3.17;1.75;;;14.60;99.90;;;;;;5050359;28;20033;-84
2021/07/08 02:44:24;;;;;;;4.40;2.38;;;14.60;99.90;;;;;;5049979;28;20029;-83
2021/07/08 02:49:49;;;;;;;2.90;2.22;;;14.60;99.90;;;;;;5065675;28;20083;-83
2021/07/08 02:52:15;;;;;;;3.55;2.30;;;14.60;99.90;;;;;;5050171;28;20037;-84
2021/07/08 02:54:41;;;;;;;2.90;2.40;;;14.50;99.90;;;;;;5033085;28;20499;-83
2021/07/08 02:57:06;;;;;;;2.70;1.92;;;14.60;99.90;;;;;;5067286;28;20033;-84
2021/07/08 02:59:32;;;;;;;3.03;2.22;;;14.60;99.90;;;;;;5049125;28;20032;-83
2021/07/08 03:01:57;;;;;;;2.85;2.10;;;14.60;99.90;;;;;;5049970;28;20029;-83
2021/07/08 03:04:24;;;;;;;3.35;1.90;;;14.60;99.90;;;;;;5049711;28;20025;-84
2021/07/08 03:06:49;;;;;;;4.00;2.33;;;14.60;99.90;;;;;;5032425;28;20037;-83
2021/07/08 03:09:15;;;;;;;3.55;2.75;;;14.60;99.90;;;;;;5032576;28;20116;-83
2021/07/08 03:11:41;;;;;;;3.05;2.13;;;14.70;99.90;;;;;;5033311;28;20061;-84
2021/07/08 03:14:06;;;;;;;6.15;2.50;;;14.70;99.90;;;;;;5067283;28;20564;-84
2021/07/08 03:16:32;;;;;;;4.57;2.53;;;14.70;99.90;;;;;;5067089;28;20037;-84
2021/07/08 03:18:58;;;;;;;4.45;2.47;;;14.70;99.90;;;;;;5048424;28;20044;-83
2021/07/08 03:21:23;;;;;;;4.60;2.90;;;14.70;99.90;;;;;;5067462;28;20032;-83
2021/07/08 03:23:49;;;;;;;4.43;3.10;;;14.80;99.90;;;;;;5049326;28;20111;-84
2021/07/08 03:26:14;;;;;;;4.53;2.88;;;14.80;99.90;;;;;;5032623;28;20029;-82
2021/07/08 03:28:40;;;;;;;3.95;2.47;;;14.80;99.90;;;;;;5048766;28;20575;-81
2021/07/08 03:31:06;;;;;;;3.58;3.03;;;14.80;99.90;;;;;;5067257;28;20380;-83
2021/07/08 03:33:31;;;;;;;4.03;2.80;;;14.80;99.90;;;;;;5049136;28;20037;-83
2021/07/08 03:35:57;;;;;;;4.45;2.92;;;14.80;99.90;;;;;;5048840;28;20029;-83
2021/07/08 03:38:23;;;;;;;3.47;2.92;;;14.90;99.90;;;;;;5066241;28;20039;-83
2021/07/08 03:40:49;;;;;;;4.30;3.13;;;14.90;99.90;;;;;;5048986;28;20084;-84
2021/07/08 03:43:14;;;;;;;3.80;2.92;;;14.90;99.90;;;;;;5032318;28;20098;-84
2021/07/08 03:45:40;;;;;;;4.32;3.47;;;14.90;99.90;;;;;;5033430;28;20067;-84
2021/07/08 03:48:06;;;;;;;3.45;3.15;;;14.90;99.90;;;;;;5065495;28;20057;-83
2021/07/08 03:50:32;;;;;;;7.07;3.22;;;14.90;99.90;;;;;;5066550;28;20033;-83
2021/07/08 03:52:58;;;;;;;6.03;3.47;;;14.90;99.90;;;;;;5048173;28;20087;-83
2021/07/08 03:55:25;;;;;;;7.70;5.30;;;14.90;99.90;;;;;;5048048;28;20384;-83
2021/07/08 03:57:55;;;;;;;5.95;4.35;;;14.90;99.90;;;;;;5065164;28;20040;-81
2021/07/08 04:00:38;;;;;;;5.60;4.53;;;15.00;99.90;;;;;;5065786;28;20094;-84
2021/07/08 04:03:10;;;;;;;4.97;4.22;;;15.00;99.90;;;;;;5047502;28;20133;-83
2021/07/08 04:05:37;;;;;;;5.43;4.55;;;15.00;99.90;;;;;;5031449;28;20040;-83
2021/07/08 04:08:04;;;;;;;7.40;5.38;;;15.00;99.90;;;;;;5064731;28;20462;-84
2021/07/08 04:10:29;;;;;;;6.32;5.38;;;15.00;99.90;;;;;;5047865;28;20060;-83
2021/07/08 04:12:55;;;;;;;6.47;4.13;;;15.10;99.90;;;;;;5047475;28;20116;-83
2021/07/08 04:15:21;;;;;;;6.80;5.55;;;15.10;99.90;;;;;;5044527;28;20029;-83
2021/07/08 04:17:47;;;;;;;7.03;5.55;;;15.10;99.90;;;;;;5030501;28;20067;-83
2021/07/08 04:20:16;;;;;;;6.93;5.68;;;15.20;99.90;;;;;;5030578;28;20079;-84
2021/07/08 04:22:42;;;;;;;6.70;5.38;;;15.20;99.90;;;;;;5046995;28;20040;-84
2021/07/08 04:25:09;;;;;;;9.10;5.15;;;15.20;99.90;;;;;;5031115;28;20437;-84
2021/07/08 04:27:36;;;;;;;5.78;5.18;;;15.30;99.90;;;;;;5046850;28;20104;-84
2021/07/08 04:30:04;;;;;;;5.57;4.90;;;15.40;99.90;;;;;;5026450;28;20034;-84
2021/07/08 04:32:30;;;;;;;6.45;5.28;;;15.50;99.90;;;;;;5043924;28;20033;-84
2021/07/08 04:34:56;;;;;;;5.35;4.35;;;15.50;99.90;;;;;;5027490;28;20029;-83
2021/07/08 04:37:22;;;;;;;7.07;5.40;;;15.60;99.90;;;;;;5023659;28;20043;-84
2021/07/08 04:39:48;;;;;;;7.22;4.93;;;15.70;99.90;;;;;;5046627;28;20024;-84
2021/07/08 04:42:14;;;;;;;6.28;4.65;;;15.70;99.90;;;;;;5030926;28;20044;-83
2021/07/08 04:44:40;;;;;;;5.82;4.55;;;15.70;99.90;;;;;;5047357;28;20025;-85
2021/07/08 04:47:06;;;;;;;6.85;4.45;;;15.80;99.90;;;;;;5029817;28;20447;-84
2021/07/08 04:49:34;;;;;;;5.45;3.92;;;15.80;99.90;;;;;;5046422;28;20143;-84
2021/07/08 04:52:01;;;;;;;4.05;3.08;;;15.80;99.90;;;;;;5063857;28;20341;-83
2021/07/08 04:54:26;;;;;;;4.30;3.33;;;15.90;99.90;;;;;;5047123;28;20029;-84
2021/07/08 04:56:52;;;;;;;4.00;3.30;;;15.90;99.90;;;;;;5030538;28;20035;-85
2021/07/08 04:59:17;;;;;;;4.00;3.30;;;15.90;99.90;;;;;;5029972;28;20063;-83
2021/07/08 05:01:43;;;;;;;6.00;4.35;;;16.00;99.90;;;;;;5047333;28;20025;-84
2021/07/08 05:04:16;;;;;;;5.47;3.75;;;16.00;99.90;;;;;;5048375;28;20032;-83
2021/07/08 05:06:42;;;;;;;4.85;3.97;;;16.00;99.90;;;;;;5064728;28;20037;-84
2021/07/08 05:09:07;;;;;;;4.03;3.63;;;16.00;99.90;;;;;;5046540;28;20047;-83
2021/07/08 05:11:33;;;;;;;5.70;4.25;;;16.10;99.90;;;;;;5030566;28;20029;-83
2021/07/08 05:13:58;;;;;;;4.63;3.95;;;16.10;99.90;;;;;;5047051;28;20033;-84
2021/07/08 05:16:24;;;;;;;6.05;3.95;;;16.20;99.90;;;;;;5030167;28;20029;-84
2021/07/08 05:18:50;;;;;;;4.20;3.80;;;16.40;99.90;;;;;;5025009;28;20124;-84
2021/07/08 05:21:15;;;;;;;6.22;4.75;;;16.40;99.90;;;;;;5044317;28;20026;-84
2021/07/08 05:23:43;;;;;;;5.10;4.22;;;16.50;99.90;;;;;;5026911;28;20482;-84
2021/07/08 05:26:09;;;;;;;6.35;4.47;;;16.40;99.90;;;;;;5010652;28;20069;-83
2021/07/08 05:28:35;;;;;;;5.32;4.00;;;16.50;99.90;;;;;;5027209;28;20030;-83
2021/07/08 05:31:00;;;;;;;5.60;4.85;;;16.50;99.90;;;;;;5010742;28;20087;-84
2021/07/08 05:33:26;;;;;;;6.47;4.90;;;16.80;99.90;;;;;;5027046;28;20029;-83
2021/07/08 05:35:52;;;;;;;5.72;4.30;;;17.00;99.90;;;;;;5045047;28;20030;-83
2021/07/08 05:38:17;;;;;;;7.75;5.72;;;17.20;99.90;;;;;;5026989;28;20034;-82
2021/07/08 05:40:43;;;;;;;8.38;4.35;;;17.40;99.90;;;;;;5044875;28;20509;-84
2021/07/08 05:43:09;;;;;;;5.68;4.82;;;17.50;99.90;;;;;;5010241;28;20059;-83
2021/07/08 05:45:35;;;;;;;6.35;4.45;;;17.50;99.90;;;;;;5027093;28;20021;-83
2021/07/08 05:48:01;;;;;;;5.60;4.35;;;17.60;99.90;;;;;;5010118;28;20060;-82
2021/07/08 05:50:26;;;;;;;7.25;4.85;;;17.60;99.90;;;;;;5057301;28;20492;-82
2021/07/08 05:52:52;;;;;;;7.07;5.30;;;17.60;99.90;;;;;;5029693;28;20037;-83
2021/07/08 05:55:18;;;;;;;7.03;5.85;;;17.60;99.90;;;;;;5063990;28;20108;-82
2021/07/08 05:57:47;;;;;;;7.40;5.43;;;17.70;99.90;;;;;;5046256;28;20033;-82
2021/07/08 06:00:14;;;;;;;6.38;5.25;;;17.90;99.90;;;;;;5031462;28;20108;-82
2021/07/08 06:02:40;;;;;;;7.35;5.13;;;18.00;99.90;;;;;;5066550;28;20033;-82
2021/07/08 06:05:06;;;;;;;7.20;5.38;;;18.20;99.90;;;;;;5051918;28;20036;-82
2021/07/08 06:07:32;;;;;;;7.38;5.30;;;18.30;99.90;;;;;;5055374;28;20068;-82
2021/07/08 06:09:57;;;;;;;6.70;5.55;;;18.40;99.90;;;;;;5070921;28;20078;-83
2021/07/08 06:12:23;;;;;;;6.65;5.60;;;18.50;99.90;;;;;;5034099;28;20075;-82
2021/07/08 06:14:50;;;;;;;6.07;4.75;;;18.60;99.90;;;;;;5053196;28;20029;-83
2021/07/08 06:17:15;;;;;;;7.97;5.13;;;18.80;99.90;;;;;;5069464;28;20128;-83
2021/07/08 06:19:41;;;;;;;6.03;4.97;;;18.90;99.90;;;;;;5069636;28;20439;-83
2021/07/08 06:22:07;;;;;;;7.97;5.22;;;19.20;99.90;;;;;;5050199;28;20055;-83
2021/07/08 06:24:32;;;;;;;5.95;5.25;;;19.30;99.90;;;;;;5042533;28;20033;-83
2021/07/08 06:26:58;;;;;;;7.88;6.10;;;19.50;99.90;;;;;;5067369;28;20067;-83
2021/07/08 06:29:24;;;;;;;7.40;6.43;;;19.40;99.90;;;;;;5018966;28;20030;-83
2021/07/08 06:31:49;;;;;;;8.88;5.93;;;19.50;99.90;;;;;;5048639;28;20029;-83
2021/07/08 06:34:15;;;;;;;7.78;5.60;;;19.70;99.90;;;;;;5032972;28;20124;-82
2021/07/08 06:36:40;;;;;;;7.70;5.05;;;20.00;99.90;;;;;;5032840;28;20037;-83
2021/07/08 06:39:06;;;;;;;9.18;7.22;;;19.90;99.90;;;;;;5047340;28;20036;-82
2021/07/08 06:41:32;;;;;;;10.57;7.00;;;19.90;99.90;;;;;;5049075;28;20033;-83
2021/07/08 06:43:57;;;;;;;9.07;7.20;;;19.90;99.90;;;;;;5013748;28;20413;-84
2021/07/08 06:46:50;;;;;;;13.35;9.30;;;19.90;99.90;;;;;;5055865;28;20051;-83
2021/07/08 06:49:16;;;;;;;7.80;5.90;;;20.00;99.90;;;;;;4972730;28;20053;-83
2021/07/08 06:51:41;;;;;;;8.65;7.78;;;20.40;99.90;;;;;;4987494;28;20046;-83
2021/07/08 06:54:07;;;;;;;9.60;7.78;;;20.40;99.90;;;;;;4971343;28;20030;-84
2021/07/08 06:56:33;;;;;;;6.85;6.07;;;20.70;99.90;;;;;;4967568;28;20035;-84
2021/07/08 06:58:58;;;;;;;8.82;6.22;;;20.80;99.90;;;;;;4952471;28;20027;-83
2021/07/08 07:01:24;;;;;;;6.30;5.38;;;21.10;99.90;;;;;;4969237;28;20034;-84
2021/07/08 07:03:50;;;;;;;7.60;5.07;;;21.10;99.90;;;;;;4969043;28;20427;-83
2021/07/08 07:06:15;;;;;;;6.97;5.40;;;21.20;99.90;;;;;;4969107;28;20193;-84
2021/07/08 07:08:42;;;;;;;6.55;5.53;;;21.50;99.90;;;;;;4968151;28;20039;-84
2021/07/08 07:11:08;;;;;;;10.38;5.20;;;21.40;99.90;;;;;;4968228;28;20055;-83
2021/07/08 07:13:34;;;;;;;5.97;5.22;;;21.40;99.90;;;;;;4976245;28;20061;-84
2021/07/08 07:16:00;;;;;;;6.60;5.57;;;21.60;99.90;;;;;;4987473;28;20030;-84
2021/07/08 07:18:25;;;;;;;10.35;5.53;;;21.70;99.90;;;;;;4988131;28;20030;-84
2021/07/08 07:20:51;;;;;;;7.88;6.30;;;21.70;99.90;;;;;;4974541;28;20042;-84
2021/07/08 07:23:17;;;;;;;6.82;5.20;;;21.60;99.90;;;;;;4984700;28;20058;-84
2021/07/08 07:25:44;;;;;;;8.07;6.65;;;21.90;99.90;;;;;;5002322;28;20033;-84
2021/07/08 07:28:10;;;;;;;8.27;4.78;;;21.80;99.90;;;;;;5044997;28;20389;-84
2021/07/08 07:30:37;;;;;;;5.68;5.00;;;22.00;99.90;;;;;;5011956;28;20064;-85
2021/07/08 07:33:03;;;;;;;5.63;4.90;;;22.30;99.90;;;;;;5062169;28;20021;-85
2021/07/08 07:35:29;;;;;;;5.70;4.68;;;22.20;99.90;;;;;;5049373;28;20037;-84
2021/07/08 07:37:55;;;;;;;8.40;5.25;;;22.30;99.90;;;;;;5051259;28;20138;-85
2021/07/08 07:40:21;;;;;;;5.95;4.22;;;22.00;99.90;;;;;;5051114;28;20043;-85
2021/07/08 07:42:48;;;;;;;6.80;4.90;;;21.30;99.90;;;;;;5030699;28;20025;-84
2021/07/08 07:45:14;;;;;;;6.57;5.13;;;21.20;99.90;;;;;;5011751;28;20036;-84
2021/07/08 07:47:40;;;;;;;6.57;5.10;;;21.50;99.90;;;;;;5027537;28;20547;-84
2021/07/08 07:50:07;;;;;;;6.68;5.05;;;21.40;99.90;;;;;;5028496;28;20094;-83
2021/07/08 07:52:33;;;;;;;8.07;4.90;;;21.50;99.90;;;;;;5030880;28;20033;-84
2021/07/08 07:55:01;;;;;;;6.57;4.20;;;21.50;99.90;;;;;;5040060;28;20045;-84
2021/07/08 07:57:26;;;;;;;6.53;4.35;;;22.40;99.90;;;;;;5032358;28;20033;-84
2021/07/08 07:59:52;;;;;;;6.75;5.70;;;22.70;99.90;;;;;;5031435;28;20128;-83
2021/07/08 08:02:18;;;;;;;6.13;4.15;;;22.00;99.90;;;;;;5030545;28;20033;-84
2021/07/08 08:04:46;;;;;;;7.22;5.03;;;22.30;99.90;;;;;;5031428;28;20055;-84
2021/07/08 08:09:57;;;;;;;6.55;5.45;;;22.90;99.90;;;;;;5045462;28;20033;-83
2021/07/08 08:12:24;;;;;;;5.60;4.40;;;22.80;99.90;;;;;;5027398;28;20087;-84
2021/07/08 08:14:57;;;;;;;6.03;4.15;;;23.20;99.90;;;;;;5048926;28;20594;-84
2021/07/08 08:17:23;;;;;;;6.50;4.20;;;22.70;99.90;;;;;;5030685;28;20036;-84
2021/07/08 08:19:48;;;;;;;5.30;3.58;;;22.60;99.90;;;;;;5047462;28;20032;-84
2021/07/08 08:22:17;;;;;;;8.45;5.07;;;23.10;99.90;;;;;;5029923;28;20071;-84
2021/07/08 08:24:43;;;;;;;5.70;4.63;;;22.60;99.90;;;;;;5030935;28;20044;-84
2021/07/08 08:27:08;;;;;;;7.35;4.32;;;22.90;99.90;;;;;;5030661;28;20043;-84
2021/07/08 08:29:34;;;;;;;4.80;2.75;;;23.60;99.90;;;;;;5053051;28;20061;-84
2021/07/08 08:31:59;;;;;;;4.15;3.70;;;24.00;99.90;;;;;;5027962;28;20037;-85
2021/07/08 08:34:25;;;;;;;6.05;3.70;;;23.50;99.90;;;;;;5044180;28;20036;-83
2021/07/08 08:36:51;;;;;;;5.97;3.42;;;23.70;99.90;;;;;;5027332;28;20029;-82
2021/07/08 08:39:16;;;;;;;6.07;4.07;;;23.80;99.90;;;;;;5027220;28;20095;-83
2021/07/08 08:41:42;;;;;;;8.82;6.20;;;23.80;99.90;;;;;;5043947;28;20045;-83
2021/07/08 08:44:07;;;;;;;6.05;3.72;;;23.10;99.90;;;;;;5027399;28;20038;-83
2021/07/08 08:46:53;;;;;;;6.75;3.97;;;23.50;99.90;;;;;;5026902;28;20099;-83
2021/07/08 08:49:19;;;;;;;5.68;3.05;;;23.90;99.90;;;;;;4986697;28;20061;-83
2021/07/08 08:51:45;;;;;;;4.93;3.08;;;23.80;99.90;;;;;;5003195;28;20102;-83
2021/07/08 08:54:12;;;;;;;2.95;1.65;;;23.70;99.90;;;;;;4989326;28;20116;-83
2021/07/08 08:56:37;;;;;;;2.88;1.08;;;24.10;99.90;;;;;;5005935;28;20034;-83
2021/07/08 08:59:03;;;;;;;2.83;1.10;;;23.90;99.90;;;;;;4989860;28;20030;-82
2021/07/08 09:01:30;;;;;;;4.97;0.90;;;23.80;99.90;;;;;;4990209;28;20073;-83
2021/07/08 09:03:56;;;;;;;2.47;1.10;;;24.00;99.90;;;;;;4989806;28;20021;-83
2021/07/08 09:06:22;;;;;;;4.25;1.48;;;23.80;99.90;;;;;;4989879;28;20038;-83
2021/07/08 09:08:50;;;;;;;2.97;1.98;;;23.80;99.90;;;;;;4989997;28;20048;-83
2021/07/08 09:11:21;;;;;;;2.83;1.42;;;24.00;99.90;;;;;;5006127;28;20061;-83
2021/07/08 09:14:00;;;;;;;3.72;1.60;;;24.50;99.90;;;;;;5005862;28;20053;-83
2021/07/08 09:16:26;;;;;;;;;;;24.40;99.90;;;;;;5006725;28;20030;-83
2021/07/08 09:19:09;;;;;;;1.95;0.60;;;24.30;99.90;;;;;;4989700;28;19979;-83
2021/07/08 09:21:48;;;;;;;2.10;0.63;;;24.60;99.90;;;;;;4989943;28;20030;-82
2021/07/08 09:24:21;;;;;;;2.30;0.70;;;24.60;99.90;;;;;;4989695;28;20036;-83
2021/07/08 09:27:07;;;;;;;2.17;0.75;;;24.70;99.90;;;;;;5050024;28;20053;-83
2021/07/08 09:29:44;;;;;;;2.40;0.70;;;25.10;99.90;;;;;;5029948;28;20029;-83
2021/07/08 09:32:15;;;;;;;1.95;0.90;;;24.80;99.90;;;;;;5030044;28;20029;-83
2021/07/08 09:34:45;;;;;;;2.53;0.95;;;24.50;99.90;;;;;;5032902;28;20025;-83
2021/07/08 09:37:24;;;;;;;2.58;1.00;;;24.90;99.90;;;;;;5050748;28;20033;-83
2021/07/08 09:40:08;;;;;;;2.75;1.10;;;25.30;99.90;;;;;;5050598;28;20024;-83
2021/07/08 09:42:43;;;;;;;2.35;1.10;;;25.50;99.90;;;;;;5033575;28;20111;-82
2021/07/08 09:45:17;;;;;;;2.67;1.17;;;25.50;99.90;;;;;;5033260;28;20035;-83
2021/07/08 09:47:47;;;;;;;5.47;2.28;;;25.50;99.90;;;;;;5046728;28;20045;-84
2021/07/08 09:50:33;;;;;;;3.00;1.60;;;24.70;99.90;;;;;;5014284;28;20029;-84
2021/07/08 09:53:24;;;;;;;4.65;3.22;;;24.90;99.90;;;;;;5013384;28;20037;-84
2021/07/08 09:58:58;;;;;;;7.07;4.65;;;24.40;99.90;;;;;;5027911;28;20041;-85
2021/07/08 10:01:26;;;;;;;7.57;5.35;;;24.10;99.90;;;;;;5050175;28;20032;-84
2021/07/08 10:03:53;;;;;;;6.40;4.10;;;23.60;99.90;;;;;;5050010;28;20029;-83
2021/07/08 10:06:20;;;;;;;4.68;3.35;;;24.10;99.90;;;;;;5033739;28;20029;-85
2021/07/08 10:08:47;;;;;;;6.22;4.03;;;24.90;99.90;;;;;;5050159;28;20416;-85
2021/07/08 10:11:14;;;;;;;5.85;4.00;;;25.00;99.90;;;;;;5033625;28;20056;-84
2021/07/08 10:13:40;;;;;;;4.63;2.05;;;25.00;99.90;;;;;;5033339;28;20029;-86
2021/07/08 10:16:08;;;;;;;6.65;4.30;;;24.80;99.90;;;;;;5050055;28;20025;-85
2021/07/08 10:18:39;;;;;;;6.30;2.67;;;24.30;99.90;;;;;;5049891;28;20055;-84
2021/07/08 10:21:06;;;;;;;3.55;2.42;;;24.50;99.90;;;;;;5033443;28;20029;-85
2021/07/08 10:23:34;;;;;;;5.80;3.30;;;24.70;99.90;;;;;;5067821;28;20029;-85
2021/07/08 10:26:04;;;;;;;3.47;1.70;;;24.70;99.90;;;;;;5033383;28;20033;-84
2021/07/08 10:28:32;;;;;;;;;;;25.30;99.90;;;;;;5033343;28;20029;-84
2021/07/08 10:30:58;;;;;;;6.05;1.73;;;25.10;99.90;;;;;;5067895;28;19909;-84
2021/07/08 10:33:24;;;;;;;1.58;0.90;;;24.80;99.90;;;;;;5032966;28;20045;-84
2021/07/08 10:35:52;;;;;;;1.70;0.60;;;25.00;99.90;;;;;;5033327;28;20139;-84
2021/07/08 10:38:40;;;;;;;2.33;1.00;;;26.60;99.90;;;;;;5033085;28;20104;-82
2021/07/08 10:41:09;;;;;;;2.83;1.55;;;25.80;99.90;;;;;;5033296;28;20037;-85
2021/07/08 10:43:39;;;;;;;2.55;0.80;;;25.10;99.90;;;;;;5049533;28;20029;-84
2021/07/08 10:46:10;;;;;;;2.80;0.70;;;25.60;99.90;;;;;;5048203;28;20033;-84
2021/07/08 10:48:43;;;;;;;3.70;1.00;;;25.60;99.90;;;;;;5049550;28;20045;-85
2021/07/08 10:51:35;;;;;;;1.98;1.20;;;25.30;99.90;;;;;;5032864;28;20037;-86
2021/07/08 10:54:30;;;;;;;3.65;1.75;;;25.30;99.90;;;;;;5067052;28;20037;-86
2021/07/08 10:56:58;;;;;;;2.65;0.70;;;25.30;99.90;;;;;;5049027;28;20365;-85
2021/07/08 10:59:38;;;;;;;2.40;0.80;;;25.60;99.90;;;;;;5049252;28;20036;-84
2021/07/08 11:02:04;;;;;;;2.28;0.60;;;25.60;99.90;;;;;;5032628;28;20043;-85
2021/07/08 11:04:47;;;;;;;2.83;0.60;;;26.20;99.90;;;;;;5049073;28;20052;-85
2021/07/08 11:07:20;;;;;;;3.45;0.60;;;25.90;99.90;;;;;;5067099;28;20041;-85
2021/07/08 11:09:58;;;;;;;1.45;0.57;;;24.50;99.90;;;;;;5049013;28;20108;-84
2021/07/08 11:12:43;;;;;;;1.17;0.40;;;24.60;99.90;;;;;;5048851;28;20085;-85
2021/07/08 11:15:09;;;;;;;1.60;0.60;;;25.30;99.90;;;;;;5032258;28;20029;-83
2021/07/08 11:17:46;;;;;;;1.75;0.80;;;25.70;99.90;;;;;;5048659;28;20037;-84
2021/07/08 11:20:32;;;;;;;2.33;0.40;;;26.10;99.90;;;;;;5048796;28;20029;-86
2021/07/08 11:23:27;;;;;;;1.92;0.55;;;25.90;99.90;;;;;;5032149;28;20551;-86
2021/07/08 11:25:53;;;;;;;1.77;0.50;;;25.30;99.90;;;;;;5048592;28;20033;-83
2021/07/08 11:28:31;;;;;;;1.73;0.50;;;25.30;99.90;;;;;;5031919;28;20040;-83
2021/07/08 11:30:58;;;;;;;3.70;0.98;;;25.00;99.90;;;;;;5048243;28;20037;-82
2021/07/08 11:33:24;;;;;;;2.47;0.73;;;25.00;99.90;;;;;;5066183;28;20029;-85
2021/07/08 11:35:56;;;;;;;4.47;1.50;;;25.10;99.90;;;;;;5046206;28;20037;-82
2021/07/08 11:38:24;;;;;;;1.60;0.88;;;24.90;99.90;;;;;;5031226;28;20036;-84
2021/07/08 11:40:51;;;;;;;3.63;1.23;;;24.90;99.90;;;;;;5031572;28;20043;-83
2021/07/08 11:43:33;;;;;;;2.70;0.95;;;25.20;99.90;;;;;;5031456;28;20124;-83
2021/07/08 11:46:08;;;;;;;4.03;1.38;;;25.10;99.90;;;;;;5031527;28;20035;-83
2021/07/08 11:48:43;;;;;;;2.63;1.00;;;24.40;99.90;;;;;;5045158;23;20061;-82
2021/07/08 11:51:17;;;;;;;3.90;0.95;;;25.10;99.90;;;;;;5028274;28;20072;-83
2021/07/08 11:53:44;;;;;;;2.95;1.30;;;24.80;99.90;;;;;;5012199;28;20445;-82
2021/07/08 11:56:10;;;;;;;5.47;1.10;;;24.30;99.90;;;;;;5027959;28;20384;-82
2021/07/08 11:58:36;;;;;;;2.35;1.40;;;24.20;99.90;;;;;;5011591;28;20037;-83
2021/07/08 12:01:05;;;;;;;3.92;1.27;;;24.00;99.90;;;;;;5045760;28;20087;-82
2021/07/08 12:03:39;;;;;;;4.03;1.23;;;23.90;99.90;;;;;;5011521;28;20052;-82
2021/07/08 12:06:11;;;;;;;3.08;1.40;;;23.70;99.90;;;;;;5011442;28;20041;-82
2021/07/08 12:08:40;;;;;;;2.60;0.80;;;23.90;99.90;;;;;;5027929;28;20034;-82
2021/07/08 12:11:11;;;;;;;3.75;0.90;;;23.70;99.90;;;;;;5025268;28;20039;-82
2021/07/08 12:13:47;;;;;;;3.22;1.10;;;23.90;99.90;;;;;;5011346;28;20099;-82
2021/07/08 12:16:14;;;;;;;3.88;1.48;;;24.20;99.90;;;;;;5027688;28;20033;-83
2021/07/08 12:18:49;;;;;;;5.30;1.48;;;24.20;99.90;;;;;;5027792;28;20029;-84
2021/07/08 12:21:30;;;;;;;2.33;0.90;;;24.50;99.90;;;;;;4624469;22;20076;-83
2021/07/08 12:24:02;;;;;;;3.75;1.00;;;24.90;99.90;;;;;;5047566;28;20033;-83
2021/07/08 12:26:39;;;;;;;2.35;1.00;;;25.10;99.90;;;;;;5065341;28;20029;-83
2021/07/08 12:29:25;;;;;;;3.92;1.30;;;24.90;99.90;;;;;;5047282;28;20059;-83
2021/07/08 12:31:59;;;;;;;3.47;0.90;;;24.90;99.90;;;;;;5047240;28;20472;-84
2021/07/08 12:34:36;;;;;;;4.22;1.05;;;24.50;99.90;;;;;;5047299;28;20412;-83
2021/07/08 12:37:22;;;;;;;4.05;0.90;;;24.80;99.90;;;;;;5047303;28;20044;-84
2021/07/08 12:40:01;;;;;;;2.72;1.30;;;24.90;99.90;;;;;;5030713;28;20079;-84
2021/07/08 12:42:35;;;;;;;3.67;0.95;;;24.60;99.90;;;;;;5046907;28;20040;-84
2021/07/08 12:45:10;;;;;;;3.25;0.98;;;24.80;99.90;;;;;;5030736;28;20466;-84
2021/07/08 12:47:37;;;;;;;6.00;1.38;;;24.90;99.90;;;;;;5047186;28;20040;-84
2021/07/08 12:50:05;;;;;;;3.47;1.13;;;24.80;99.90;;;;;;5030633;28;20039;-84
2021/07/08 12:52:31;;;;;;;3.63;1.10;;;24.60;99.90;;;;;;5047129;28;20032;-83
2021/07/08 12:54:57;;;;;;;3.60;0.93;;;24.20;99.90;;;;;;5046880;28;20033;-84
2021/07/08 12:57:22;;;;;;;3.28;1.17;;;24.00;99.90;;;;;;5030365;28;20079;-84
2021/07/08 12:59:55;;;;;;;3.80;1.10;;;23.80;99.90;;;;;;5047082;28;20044;-84
2021/07/08 13:02:26;;;;;;;2.80;1.10;;;23.80;99.90;;;;;;5030428;28;20037;-84